Time;durP1;ratioP1;P1;durP2;ratioP2;P2;SDS_P1;SDS_P2;PMS_P1;PMS_P2;Temp;Humidity;BMP_temperature;BMP_pressure;BME280_temperature;BME280_humidity;BME280_pressure;Samples;Min_cycle;Max_cycle;Signal;HPM_P1;HPM_P2
2022/04/11 00:01:44;;;;;;;1.30;1.30;;;17.40;63.50;;;;;;5026081;28;43937;-71
2022/04/11 00:04:12;;;;;;;1.03;1.03;;;17.40;63.60;;;;;;5027475;28;43901;-71
2022/04/11 00:06:40;;;;;;;1.10;1.10;;;17.30;63.70;;;;;;5026281;28;43953;-71
2022/04/11 00:09:08;;;;;;;1.20;1.20;;;17.30;63.80;;;;;;5026430;28;43913;-71
2022/04/11 00:11:36;;;;;;;1.27;1.27;;;17.30;63.90;;;;;;5026982;28;43973;-70
2022/04/11 00:14:07;;;;;;;1.20;1.20;;;17.20;63.90;;;;;;5026876;28;43968;-71
2022/04/11 00:16:35;;;;;;;1.00;1.00;;;17.20;64.00;;;;;;5026093;28;43953;-72
2022/04/11 00:19:05;;;;;;;1.17;1.17;;;17.20;64.40;;;;;;5008388;28;44665;-72
2022/04/11 00:21:33;;;;;;;1.30;1.30;;;17.40;64.30;;;;;;5026590;28;43982;-72
2022/04/11 00:24:01;;;;;;;1.43;1.43;;;17.60;63.80;;;;;;5026371;28;43971;-71
2022/04/11 00:26:29;;;;;;;1.10;1.10;;;17.80;63.30;;;;;;5026340;28;43662;-72
2022/04/11 00:28:56;;;;;;;1.00;1.00;;;17.90;62.80;;;;;;5026042;28;43473;-71
2022/04/11 00:31:26;;;;;;;1.33;1.33;;;18.00;62.60;;;;;;5008422;28;43479;-72
2022/04/11 00:33:54;;;;;;;1.10;1.10;;;17.90;62.40;;;;;;5008239;28;43980;-72
2022/04/11 00:36:22;;;;;;;1.20;1.20;;;17.80;62.40;;;;;;5006934;28;45448;-71
2022/04/11 00:38:50;;;;;;;1.20;1.20;;;17.70;62.40;;;;;;5025252;28;44110;-72
2022/04/11 00:41:18;;;;;;;1.30;1.30;;;17.60;62.60;;;;;;5008242;28;43484;-72
2022/04/11 00:43:47;;;;;;;0.93;0.93;;;17.50;62.90;;;;;;5007816;28;43949;-72
2022/04/11 00:46:15;;;;;;;1.23;1.23;;;17.50;63.20;;;;;;5025804;28;43914;-72
2022/04/11 00:48:44;;;;;;;1.20;1.20;;;17.40;63.30;;;;;;5025001;28;44015;-72
2022/04/11 00:51:15;;;;;;;1.20;1.20;;;17.40;63.50;;;;;;5026413;28;43851;-71
2022/04/11 00:53:45;;;;;;;1.30;1.30;;;17.30;63.50;;;;;;5007927;28;43973;-72
2022/04/11 00:56:14;;;;;;;1.20;1.20;;;17.30;64.10;;;;;;5008070;28;45439;-73
2022/04/11 00:58:42;;;;;;;1.00;1.00;;;17.40;64.00;;;;;;5025247;28;44113;-72
2022/04/11 01:01:10;;;;;;;0.97;0.97;;;17.60;63.70;;;;;;5026032;28;43315;-72
2022/04/11 01:03:38;;;;;;;1.20;1.20;;;17.70;63.30;;;;;;5007867;28;43966;-71
2022/04/11 01:06:08;;;;;;;1.20;1.20;;;17.60;63.00;;;;;;5025755;28;44503;-71
2022/04/11 01:08:36;;;;;;;1.10;1.10;;;17.60;62.90;;;;;;5007973;28;45167;-71
2022/04/11 01:11:04;;;;;;;1.20;1.20;;;17.50;62.90;;;;;;5025908;28;43996;-72
2022/04/11 01:13:32;;;;;;;1.10;1.10;;;17.50;63.20;;;;;;5008273;28;43374;-71
2022/04/11 01:16:01;;;;;;;1.20;1.20;;;17.40;63.30;;;;;;5007089;28;44807;-71
2022/04/11 01:18:33;;;;;;;1.07;1.07;;;17.40;63.60;;;;;;5006921;28;45474;-71
2022/04/11 01:21:02;;;;;;;1.20;1.20;;;17.30;63.60;;;;;;5007319;28;44035;-72
2022/04/11 01:23:31;;;;;;;1.10;1.10;;;17.30;63.80;;;;;;5008021;28;43884;-72
2022/04/11 01:25:59;;;;;;;1.30;1.30;;;17.30;63.80;;;;;;5024842;28;43992;-72
2022/04/11 01:28:28;;;;;;;1.10;1.10;;;17.20;63.80;;;;;;5007236;28;44029;-71
2022/04/11 01:30:56;;;;;;;1.10;1.10;;;17.20;63.90;;;;;;5007045;28;43962;-71
2022/04/11 01:33:26;;;;;;;1.20;1.20;;;17.20;64.40;;;;;;5025736;28;43992;-72
2022/04/11 01:36:02;;;;;;;1.20;1.20;;;17.30;64.30;;;;;;5006714;28;46679;-71
2022/04/11 01:38:34;;;;;;;1.10;1.10;;;17.50;64.00;;;;;;5025476;28;43830;-71
2022/04/11 01:41:02;;;;;;;1.30;1.30;;;17.70;63.30;;;;;;5006942;28;44013;-71
2022/04/11 01:43:30;;;;;;;1.23;1.23;;;17.80;62.80;;;;;;5007579;28;43929;-72
2022/04/11 01:45:59;;;;;;;0.90;0.90;;;17.90;62.50;;;;;;5006644;28;43846;-73
2022/04/11 01:48:39;;;;;;;1.10;1.10;;;17.90;62.40;;;;;;5008911;28;44740;-72
2022/04/11 01:51:08;;;;;;;1.10;1.10;;;17.80;62.30;;;;;;5010989;28;44010;-72
2022/04/11 01:53:38;;;;;;;1.20;1.20;;;17.70;62.40;;;;;;5011204;28;44000;-72
2022/04/11 01:56:06;;;;;;;1.20;1.20;;;17.60;62.60;;;;;;5014469;28;45361;-72
2022/04/11 01:58:35;;;;;;;1.20;1.20;;;17.50;62.90;;;;;;5010368;28;45696;-71
2022/04/11 02:01:03;;;;;;;1.20;1.20;;;17.50;63.20;;;;;;5010230;28;43768;-71
2022/04/11 02:03:34;;;;;;;1.10;1.10;;;17.40;63.30;;;;;;5028997;28;44118;-71
2022/04/11 02:06:03;;;;;;;1.00;1.00;;;17.40;63.50;;;;;;5009814;28;44066;-71
2022/04/11 02:08:31;;;;;;;1.20;1.20;;;17.30;63.50;;;;;;5010185;28;44663;-71
2022/04/11 02:11:08;;;;;;;1.30;1.30;;;17.30;63.90;;;;;;5010619;28;44283;-71
2022/04/11 02:13:36;;;;;;;1.27;1.27;;;17.30;64.00;;;;;;5011120;28;44048;-72
2022/04/11 02:16:05;;;;;;;1.00;1.00;;;17.50;63.70;;;;;;5009798;28;46318;-71
2022/04/11 02:18:33;;;;;;;1.30;1.30;;;17.60;63.30;;;;;;5010419;28;44061;-71
2022/04/11 02:21:02;;;;;;;0.90;0.90;;;17.60;63.00;;;;;;5009774;28;43986;-71
2022/04/11 02:23:30;;;;;;;1.00;1.00;;;17.60;62.90;;;;;;5028754;28;43862;-72
2022/04/11 02:25:58;;;;;;;1.10;1.10;;;17.50;62.90;;;;;;5009649;28;45645;-72
2022/04/11 02:28:27;;;;;;;1.20;1.20;;;17.40;63.00;;;;;;5009855;28;45818;-72
2022/04/11 02:30:55;;;;;;;1.37;1.37;;;17.40;63.30;;;;;;5009693;28;43952;-72
2022/04/11 02:33:25;;;;;;;1.10;1.10;;;17.30;63.30;;;;;;5010698;28;43630;-72
2022/04/11 02:35:53;;;;;;;1.00;1.00;;;17.30;63.50;;;;;;5009446;28;43933;-71
2022/04/11 02:38:22;;;;;;;1.33;1.33;;;17.30;63.50;;;;;;5003151;28;44203;-72
2022/04/11 02:40:50;;;;;;;1.20;1.20;;;17.30;63.60;;;;;;5003037;28;43999;-71
2022/04/11 02:43:26;;;;;;;1.20;1.20;;;17.20;63.70;;;;;;5021347;28;44044;-71
2022/04/11 02:46:04;;;;;;;1.30;1.30;;;17.20;63.70;;;;;;5009647;28;45435;-72
2022/04/11 02:48:38;;;;;;;1.20;1.20;;;17.20;64.10;;;;;;5009861;28;44959;-72
2022/04/11 02:51:16;;;;;;;1.23;1.23;;;17.20;64.20;;;;;;5009875;28;43673;-72
2022/04/11 02:53:51;;;;;;;1.20;1.20;;;17.40;63.80;;;;;;5009813;28;44091;-72
2022/04/11 02:56:21;;;;;;;1.30;1.20;;;17.60;63.20;;;;;;5027556;28;43917;-72
2022/04/11 02:58:53;;;;;;;1.37;1.37;;;17.80;62.60;;;;;;5026180;28;43429;-72
2022/04/11 03:01:21;;;;;;;1.30;1.20;;;17.90;62.20;;;;;;5009194;28;43467;-72
2022/04/11 03:03:53;;;;;;;1.27;1.27;;;18.00;62.20;;;;;;5003576;28;44003;-70
2022/04/11 03:06:23;;;;;;;1.33;1.33;;;17.90;61.80;;;;;;5009813;28;45674;-72
2022/04/11 03:08:52;;;;;;;1.23;1.23;;;17.80;62.00;;;;;;5009184;28;44881;-71
2022/04/11 03:11:28;;;;;;;1.40;1.30;;;17.70;62.20;;;;;;5010339;28;43970;-72
2022/04/11 03:13:58;;;;;;;1.30;1.30;;;17.60;62.50;;;;;;5009367;28;44080;-72
2022/04/11 03:16:27;;;;;;;1.20;1.20;;;17.50;62.80;;;;;;5018988;28;43790;-71
2022/04/11 03:18:55;;;;;;;1.10;1.10;;;17.40;63.00;;;;;;5025364;28;45079;-72
2022/04/11 03:21:23;;;;;;;1.27;1.27;;;17.40;63.20;;;;;;5025862;28;44047;-72
2022/04/11 03:24:00;;;;;;;1.30;1.30;;;17.30;63.20;;;;;;5026198;28;44195;-72
2022/04/11 03:26:28;;;;;;;1.30;1.30;;;17.30;63.60;;;;;;5026912;28;43904;-72
2022/04/11 03:28:59;;;;;;;7.10;1.40;;;17.30;64.70;;;;;;5024956;28;43996;-71
2022/04/11 03:31:27;;;;;;;1.13;1.13;;;17.40;63.70;;;;;;5025620;28;44070;-72
2022/04/11 03:33:57;;;;;;;1.20;1.20;;;17.60;63.30;;;;;;5025256;28;43928;-72
2022/04/11 03:36:31;;;;;;;1.20;1.20;;;17.60;63.00;;;;;;5025484;28;44111;-71
2022/04/11 03:38:58;;;;;;;1.23;1.23;;;17.60;62.80;;;;;;5025277;28;44479;-71
2022/04/11 03:41:29;;;;;;;1.30;1.30;;;17.50;62.70;;;;;;5025347;28;43963;-72
2022/04/11 03:44:10;;;;;;;1.20;1.20;;;17.50;62.90;;;;;;5026051;28;44042;-73
2022/04/11 03:46:39;;;;;;;1.40;1.40;;;17.40;63.10;;;;;;5025011;28;45092;-71
2022/04/11 03:49:10;;;;;;;1.10;1.10;;;17.30;63.20;;;;;;5025018;28;43992;-72
2022/04/11 03:51:38;;;;;;;1.20;1.20;;;17.30;63.40;;;;;;5027014;28;44025;-71
2022/04/11 03:54:07;;;;;;;1.27;1.27;;;17.30;63.50;;;;;;5025810;28;43926;-71
2022/04/11 03:56:35;;;;;;;1.20;1.20;;;17.20;63.50;;;;;;5025460;28;43982;-72
2022/04/11 03:59:06;;;;;;;1.27;1.27;;;17.20;63.60;;;;;;5025152;28;44620;-71
2022/04/11 04:01:36;;;;;;;1.20;1.20;;;17.20;63.70;;;;;;5025426;28;44348;-71
2022/04/11 04:04:05;;;;;;;1.30;1.30;;;17.20;64.00;;;;;;5025399;28;43774;-72
2022/04/11 04:06:34;;;;;;;1.10;1.10;;;17.20;64.20;;;;;;5026521;28;43974;-72
2022/04/11 04:09:03;;;;;;;1.30;1.30;;;17.40;64.00;;;;;;5024826;28;43924;-72
2022/04/11 04:11:35;;;;;;;1.30;1.30;;;17.50;63.50;;;;;;5024958;28;44317;-72
2022/04/11 04:14:30;;;;;;;1.20;1.20;;;17.70;62.80;;;;;;5025342;28;43977;-72
2022/04/11 04:17:01;;;;;;;1.10;1.10;;;17.90;62.30;;;;;;5023905;28;46239;-72
2022/04/11 04:19:39;;;;;;;1.50;1.50;;;17.90;62.20;;;;;;5024501;28;43919;-72
2022/04/11 04:22:13;;;;;;;1.10;1.10;;;17.80;62.20;;;;;;5024750;28;43866;-71
2022/04/11 04:24:41;;;;;;;1.03;1.03;;;17.70;62.20;;;;;;5026709;28;43389;-73
2022/04/11 04:27:09;;;;;;;1.10;1.10;;;17.60;62.40;;;;;;5024641;28;44793;-72
2022/04/11 04:29:39;;;;;;;1.30;1.30;;;17.50;62.70;;;;;;5024457;28;46263;-71
2022/04/11 04:32:09;;;;;;;1.20;1.20;;;17.40;62.90;;;;;;5024712;28;44090;-72
2022/04/11 04:34:38;;;;;;;1.20;1.20;;;17.40;63.10;;;;;;5025422;28;44030;-72
2022/04/11 04:37:08;;;;;;;1.60;1.60;;;17.30;63.20;;;;;;5024613;28;44908;-71
2022/04/11 04:39:37;;;;;;;1.23;1.23;;;17.30;63.40;;;;;;5026386;28;44145;-71
2022/04/11 04:42:07;;;;;;;1.13;1.13;;;17.20;63.80;;;;;;5024936;28;43910;-71
2022/04/11 04:44:39;;;;;;;1.20;1.20;;;17.30;64.10;;;;;;5025134;28;43881;-72
2022/04/11 04:47:10;;;;;;;1.00;1.00;;;17.40;63.70;;;;;;5024357;28;45657;-72
2022/04/11 04:49:42;;;;;;;1.20;1.20;;;17.50;63.30;;;;;;5023353;28;44611;-71
2022/04/11 04:52:12;;;;;;;1.10;1.10;;;17.50;63.00;;;;;;5025014;28;43948;-70
2022/04/11 04:54:52;;;;;;;1.13;1.13;;;17.50;62.90;;;;;;5025199;28;44035;-71
2022/04/11 04:57:21;;;;;;;1.17;1.17;;;17.40;62.70;;;;;;5024775;28;44813;-73
2022/04/11 04:59:49;;;;;;;1.13;1.13;;;17.40;63.00;;;;;;5024855;28;43893;-72
2022/04/11 05:02:25;;;;;;;1.00;1.00;;;17.30;63.20;;;;;;5024422;28;43967;-71
2022/04/11 05:04:53;;;;;;;1.20;1.20;;;17.30;63.40;;;;;;5024809;28;44096;-72
2022/04/11 05:07:23;;;;;;;1.10;1.10;;;17.20;63.50;;;;;;5024808;28;45695;-72
2022/04/11 05:09:51;;;;;;;1.10;1.10;;;17.20;63.60;;;;;;5024536;28;43779;-72
2022/04/11 05:12:19;;;;;;;1.13;1.13;;;17.10;63.60;;;;;;5024820;28;43952;-71
2022/04/11 05:14:47;;;;;;;1.20;1.20;;;17.10;63.70;;;;;;5024564;28;44035;-71
2022/04/11 05:17:16;;;;;;;1.20;1.20;;;17.10;63.70;;;;;;5008086;28;44035;-72
2022/04/11 05:19:46;;;;;;;1.00;1.00;;;17.10;63.70;;;;;;5007312;28;43968;-71
2022/04/11 05:22:16;;;;;;;1.10;1.10;;;17.10;64.20;;;;;;5007411;28;43985;-72
2022/04/11 05:24:44;;;;;;;1.33;1.33;;;17.30;64.00;;;;;;5008386;28;43397;-72
2022/04/11 05:27:13;;;;;;;1.20;1.20;;;17.50;63.60;;;;;;5008211;28;45702;-71
2022/04/11 05:29:42;;;;;;;1.13;1.13;;;17.70;63.00;;;;;;5025913;28;43941;-71
2022/04/11 05:32:10;;;;;;;1.10;1.10;;;17.80;62.50;;;;;;5026073;28;43472;-72
2022/04/11 05:34:38;;;;;;;1.10;1.10;;;17.80;62.20;;;;;;5008380;28;44011;-71
2022/04/11 05:37:09;;;;;;;1.10;1.10;;;17.80;62.30;;;;;;5007962;28;45889;-71
2022/04/11 05:39:37;;;;;;;1.10;1.10;;;17.70;62.10;;;;;;5008022;28;45935;-71
2022/04/11 05:42:06;;;;;;;1.20;1.20;;;17.60;62.20;;;;;;5007905;28;43975;-73
2022/04/11 05:44:36;;;;;;;1.20;1.20;;;17.50;62.50;;;;;;5008446;28;43922;-72
2022/04/11 05:47:04;;;;;;;1.10;1.10;;;17.40;62.70;;;;;;5025375;28;43949;-72
2022/04/11 05:49:46;;;;;;;1.10;1.10;;;17.40;63.00;;;;;;5007449;28;43488;-71
2022/04/11 05:52:16;;;;;;;1.40;1.30;;;17.30;63.10;;;;;;5025810;28;43814;-72
2022/04/11 05:54:44;;;;;;;1.47;1.40;;;17.20;63.20;;;;;;5007739;28;44057;-72
2022/04/11 05:57:13;;;;;;;1.90;1.73;;;17.20;63.30;;;;;;5007617;28;44359;-71
2022/04/11 05:59:41;;;;;;;1.70;1.60;;;17.20;63.90;;;;;;5007105;28;45528;-71
2022/04/11 06:02:10;;;;;;;1.77;1.67;;;17.20;64.00;;;;;;5000786;28;43872;-72
2022/04/11 06:04:39;;;;;;;2.47;1.70;;;17.40;63.70;;;;;;5001851;28;44017;-72
2022/04/11 06:07:08;;;;;;;2.10;1.90;;;17.50;63.30;;;;;;5018093;28;46915;-72
2022/04/11 06:09:38;;;;;;;2.00;1.83;;;17.50;62.90;;;;;;5018067;28;44536;-72
2022/04/11 06:12:14;;;;;;;2.13;2.00;;;17.50;62.80;;;;;;5007705;28;43883;-72
2022/04/11 06:14:44;;;;;;;1.87;1.77;;;17.40;62.70;;;;;;5007221;28;44023;-72
2022/04/11 06:17:13;;;;;;;2.03;1.83;;;17.30;62.90;;;;;;5023103;28;45470;-71
2022/04/11 06:19:41;;;;;;;3.77;2.40;;;17.30;63.90;;;;;;5023666;28;43981;-72
2022/04/11 06:22:11;;;;;;;2.27;2.03;;;17.20;63.30;;;;;;5025657;28;43916;-71
2022/04/11 06:24:56;;;;;;;2.60;2.10;;;17.20;63.50;;;;;;5025496;28;44704;-72
2022/04/11 06:27:24;;;;;;;2.43;2.23;;;17.10;63.60;;;;;;5025578;28;43842;-72
2022/04/11 06:29:56;;;;;;;2.67;2.00;;;17.10;63.80;;;;;;5023410;28;44899;-71
2022/04/11 06:32:26;;;;;;;2.37;2.20;;;17.10;63.90;;;;;;5023666;28;43994;-71
2022/04/11 06:34:59;;;;;;;2.77;2.50;;;17.00;63.80;;;;;;5024865;28;44021;-71
2022/04/11 06:37:27;;;;;;;3.37;2.13;;;17.00;64.10;;;;;;5026847;28;45854;-71
2022/04/11 06:40:01;;;;;;;2.10;1.90;;;17.10;64.30;;;;;;5026762;28;44039;-72
2022/04/11 06:42:31;;;;;;;3.10;2.27;;;17.30;64.00;;;;;;5021110;28;43875;-72
2022/04/11 06:45:01;;;;;;;2.47;2.20;;;17.50;63.40;;;;;;5027175;28;43962;-72
2022/04/11 06:47:32;;;;;;;2.43;2.30;;;17.70;62.90;;;;;;5026876;28;44011;-72
2022/04/11 06:50:01;;;;;;;3.00;2.50;;;17.80;62.40;;;;;;5026361;28;44039;-71
2022/04/11 06:52:29;;;;;;;3.57;2.10;;;17.80;62.20;;;;;;5028320;28;43949;-71
2022/04/11 06:54:57;;;;;;;2.83;2.53;;;17.80;62.20;;;;;;5028696;28;44040;-72
2022/04/11 06:57:26;;;;;;;2.10;2.00;;;17.70;62.20;;;;;;5028080;28;43964;-72
2022/04/11 06:59:54;;;;;;;2.23;2.03;;;17.60;62.30;;;;;;5027625;28;44123;-71
2022/04/11 07:02:22;;;;;;;2.80;1.97;;;17.50;62.50;;;;;;5027933;28;43393;-72
2022/04/11 07:04:50;;;;;;;3.33;2.40;;;17.40;62.70;;;;;;5028146;28;44066;-72
2022/04/11 07:07:19;;;;;;;2.23;2.13;;;17.40;63.00;;;;;;5027575;28;43580;-73
2022/04/11 07:09:47;;;;;;;2.53;2.33;;;17.30;63.10;;;;;;5027514;28;43618;-72
2022/04/11 07:12:15;;;;;;;2.40;2.30;;;17.30;63.30;;;;;;5028343;28;44033;-71
2022/04/11 07:14:44;;;;;;;2.83;2.23;;;17.20;63.50;;;;;;5026355;28;43905;-72
2022/04/11 07:17:12;;;;;;;2.50;2.30;;;17.30;63.90;;;;;;5026053;28;44186;-72
2022/04/11 07:19:40;;;;;;;2.00;1.90;;;17.40;63.70;;;;;;5026360;28;44984;-71
2022/04/11 07:22:08;;;;;;;2.47;2.27;;;17.50;63.30;;;;;;5027763;28;43900;-72
2022/04/11 07:24:37;;;;;;;2.70;1.87;;;17.60;63.00;;;;;;5026452;28;43945;-72
2022/04/11 07:27:06;;;;;;;2.00;1.90;;;17.50;62.70;;;;;;5026205;28;45949;-72
2022/04/11 07:29:34;;;;;;;2.07;1.97;;;17.50;62.80;;;;;;5027751;28;44005;-71
2022/04/11 07:32:04;;;;;;;2.47;2.27;;;17.40;62.90;;;;;;5025764;28;44162;-72
2022/04/11 07:34:32;;;;;;;2.70;2.40;;;17.30;63.10;;;;;;5027916;28;43849;-72
2022/04/11 07:37:00;;;;;;;2.47;2.23;;;17.30;63.30;;;;;;5027601;28;44012;-71
2022/04/11 07:39:29;;;;;;;2.13;2.03;;;17.20;63.40;;;;;;5026114;28;44924;-71
2022/04/11 07:41:57;;;;;;;2.43;1.90;;;17.20;63.50;;;;;;5025346;28;43835;-71
2022/04/11 07:44:25;;;;;;;2.03;1.93;;;17.20;63.60;;;;;;5027433;28;44037;-72
2022/04/11 07:46:52;;;;;;;2.03;1.93;;;17.20;63.70;;;;;;5026593;28;45075;-71
2022/04/11 07:49:22;;;;;;;2.43;2.20;;;17.10;63.70;;;;;;5027133;28;43889;-71
2022/04/11 07:51:50;;;;;;;2.33;2.00;;;17.20;63.80;;;;;;5026972;28;43463;-71
2022/04/11 07:54:17;;;;;;;2.40;2.20;;;17.20;64.30;;;;;;5027719;28;44091;-71
2022/04/11 07:56:45;;;;;;;2.10;2.00;;;17.30;64.10;;;;;;5027258;28;43933;-72
2022/04/11 07:59:13;;;;;;;2.00;1.90;;;17.40;63.60;;;;;;5027022;28;43402;-72
2022/04/11 08:01:41;;;;;;;2.10;2.00;;;17.60;63.00;;;;;;5025045;28;43991;-72
2022/04/11 08:04:09;;;;;;;2.23;2.10;;;17.80;62.50;;;;;;5027772;28;44500;-72
2022/04/11 08:06:40;;;;;;;2.10;2.00;;;17.90;62.20;;;;;;5027519;28;43638;-72
2022/04/11 08:09:08;;;;;;;2.10;2.00;;;17.80;62.10;;;;;;5025843;28;44111;-71
2022/04/11 08:11:36;;;;;;;2.40;2.20;;;17.80;62.20;;;;;;5027510;28;43327;-72
2022/04/11 08:14:04;;;;;;;2.10;2.00;;;17.70;62.20;;;;;;5027273;28;43332;-72
2022/04/11 08:16:32;;;;;;;1.60;1.60;;;17.60;62.40;;;;;;5026622;28;45150;-72
2022/04/11 08:19:00;;;;;;;1.70;1.70;;;17.50;62.80;;;;;;5026562;28;44049;-71
2022/04/11 08:21:28;;;;;;;1.80;1.70;;;17.40;62.90;;;;;;5027209;28;43396;-72
2022/04/11 08:23:57;;;;;;;1.90;1.80;;;17.40;63.20;;;;;;5026730;28;43856;-71
2022/04/11 08:26:25;;;;;;;1.60;1.60;;;17.30;63.20;;;;;;5026988;28;43945;-72
2022/04/11 08:28:53;;;;;;;2.10;2.00;;;17.30;63.40;;;;;;5008787;28;45180;-72
2022/04/11 08:31:21;;;;;;;2.00;1.90;;;17.20;63.60;;;;;;5009144;28;44043;-71
2022/04/11 08:33:49;;;;;;;2.00;1.90;;;17.30;64.10;;;;;;5008935;28;43931;-72
2022/04/11 08:36:17;;;;;;;1.70;1.60;;;17.40;63.70;;;;;;5026631;28;43773;-72
2022/04/11 08:38:46;;;;;;;1.70;1.70;;;17.50;63.20;;;;;;5026670;28;43385;-71
2022/04/11 08:41:19;;;;;;;1.50;1.47;;;17.50;62.90;;;;;;5027197;28;43409;-72
2022/04/11 08:43:47;;;;;;;1.40;1.40;;;17.50;62.70;;;;;;5008709;28;43932;-72
2022/04/11 08:46:17;;;;;;;1.97;1.87;;;17.50;62.80;;;;;;5026811;28;43867;-72
2022/04/11 08:48:45;;;;;;;1.90;1.80;;;17.40;62.90;;;;;;5008250;28;44630;-71
2022/04/11 08:51:13;;;;;;;1.80;1.73;;;17.40;63.20;;;;;;5026667;28;43941;-71
2022/04/11 08:53:41;;;;;;;1.70;1.70;;;17.30;63.30;;;;;;5008917;28;43941;-72
2022/04/11 08:56:09;;;;;;;1.67;1.67;;;17.20;63.40;;;;;;5026606;28;44018;-72
2022/04/11 08:58:38;;;;;;;1.63;1.60;;;17.20;63.50;;;;;;5007396;28;45207;-71
2022/04/11 09:01:06;;;;;;;1.80;1.70;;;17.20;63.60;;;;;;5026576;28;43949;-71
2022/04/11 09:03:34;;;;;;;1.70;1.60;;;17.20;63.80;;;;;;5026733;28;43963;-72
2022/04/11 09:06:07;;;;;;;1.83;1.80;;;17.20;63.80;;;;;;5008131;28;47289;-72
2022/04/11 09:08:41;;;;;;;1.90;1.80;;;17.20;63.90;;;;;;5026555;28;43977;-72
2022/04/11 09:11:09;;;;;;;2.10;2.00;;;17.20;64.30;;;;;;5008660;28;43988;-72
2022/04/11 09:13:49;;;;;;;2.03;1.93;;;17.30;64.00;;;;;;5020310;28;44244;-72
2022/04/11 09:16:17;;;;;;;1.90;1.80;;;17.50;63.40;;;;;;5025897;28;44067;-72
2022/04/11 09:18:49;;;;;;;2.03;1.93;;;17.70;63.00;;;;;;5025946;28;43447;-71
2022/04/11 09:21:17;;;;;;;1.83;1.73;;;17.80;62.60;;;;;;5025987;28;44014;-71
2022/04/11 09:23:45;;;;;;;1.70;1.60;;;17.80;62.30;;;;;;5026354;28;43913;-71
2022/04/11 09:26:20;;;;;;;1.57;1.57;;;17.70;62.20;;;;;;5026122;28;44294;-71
2022/04/11 09:29:03;;;;;;;1.67;1.67;;;17.70;62.40;;;;;;5025695;28;44538;-72
2022/04/11 09:31:31;;;;;;;1.60;1.60;;;17.60;62.60;;;;;;5025997;28;43886;-72
2022/04/11 09:33:59;;;;;;;1.60;1.60;;;17.50;62.90;;;;;;5026431;28;44213;-71
2022/04/11 09:36:47;;;;;;;1.73;1.70;;;17.40;63.00;;;;;;5026226;28;43938;-71
2022/04/11 09:39:32;;;;;;;1.53;1.47;;;17.40;63.30;;;;;;5026043;28;43526;-72
2022/04/11 09:42:04;;;;;;;1.67;1.57;;;17.30;63.30;;;;;;5026070;28;43930;-71
2022/04/11 09:44:35;;;;;;;1.50;1.50;;;17.30;63.50;;;;;;5026510;28;44124;-72
2022/04/11 09:47:23;;;;;;;1.90;1.80;;;17.20;63.50;;;;;;5025931;28;43720;-71
2022/04/11 09:49:51;;;;;;;1.50;1.50;;;17.30;64.00;;;;;;5025540;28;44069;-71
2022/04/11 09:52:19;;;;;;;1.50;1.50;;;17.40;63.90;;;;;;5007764;28;43783;-72
2022/04/11 09:54:49;;;;;;;1.63;1.53;;;17.50;63.40;;;;;;5025781;28;44001;-71
2022/04/11 09:57:18;;;;;;;2.03;1.93;;;17.50;63.00;;;;;;5025638;28;43961;-72
2022/04/11 09:59:49;;;;;;;1.43;1.33;;;17.50;62.80;;;;;;5025171;28;44039;-72
2022/04/11 10:02:44;;;;;;;1.40;1.40;;;17.50;63.00;;;;;;5022229;28;44028;-71
2022/04/11 10:05:12;;;;;;;1.80;1.70;;;17.40;63.10;;;;;;5026005;28;43521;-72
2022/04/11 10:07:40;;;;;;;1.60;1.60;;;17.40;63.40;;;;;;5025529;28;45147;-72
2022/04/11 10:10:08;;;;;;;1.27;1.27;;;17.30;63.50;;;;;;5028562;28;44073;-72
2022/04/11 10:12:36;;;;;;;1.40;1.40;;;17.30;63.60;;;;;;5029372;28;43992;-71
2022/04/11 10:15:06;;;;;;;1.30;1.30;;;17.30;63.80;;;;;;5028824;28;43936;-71
2022/04/11 10:17:34;;;;;;;1.73;1.63;;;17.20;63.80;;;;;;5028806;28;45518;-71
2022/04/11 10:20:02;;;;;;;1.40;1.40;;;17.20;63.90;;;;;;5028446;28;44101;-72
2022/04/11 10:22:30;;;;;;;1.60;1.60;;;17.20;63.90;;;;;;5028964;28;43480;-71
2022/04/11 10:25:02;;;;;;;1.40;1.40;;;17.20;64.10;;;;;;5029173;28;43914;-71
2022/04/11 10:27:30;;;;;;;1.60;1.60;;;17.20;64.30;;;;;;5028578;28;43831;-72
2022/04/11 10:29:59;;;;;;;1.40;1.30;;;17.40;64.20;;;;;;5028429;28;44060;-71
2022/04/11 10:32:29;;;;;;;1.30;1.30;;;17.50;63.70;;;;;;5028693;28;43863;-72
2022/04/11 10:34:57;;;;;;;1.40;1.40;;;17.70;63.00;;;;;;5028658;28;44011;-71
2022/04/11 10:37:26;;;;;;;1.50;1.50;;;17.90;62.70;;;;;;5028734;28;44069;-71
2022/04/11 10:40:16;;;;;;;1.50;1.50;;;17.90;62.50;;;;;;5021873;28;43862;-71
2022/04/11 10:42:47;;;;;;;1.40;1.40;;;17.80;62.30;;;;;;5024734;28;44048;-71
2022/04/11 10:45:28;;;;;;;1.53;1.53;;;17.70;62.40;;;;;;5028973;28;43982;-72
2022/04/11 10:47:58;;;;;;;1.37;1.37;;;17.60;62.70;;;;;;5027963;28;44056;-72
2022/04/11 10:50:27;;;;;;;1.30;1.30;;;17.50;63.00;;;;;;5028335;28;43855;-71
2022/04/11 10:53:22;;;;;;;1.40;1.40;;;17.40;63.10;;;;;;5028256;28;43505;-71
2022/04/11 10:56:04;;;;;;;1.60;1.60;;;17.40;63.30;;;;;;5028223;28;43940;-71
2022/04/11 10:58:49;;;;;;;1.47;1.47;;;17.40;63.60;;;;;;5028213;28;44131;-71
2022/04/11 11:01:51;;;;;;;1.50;1.50;;;17.30;63.70;;;;;;5003852;28;46156;-71
2022/04/11 11:04:22;;;;;;;1.30;1.30;;;17.30;64.10;;;;;;5019851;28;44069;-70
2022/04/11 11:07:22;;;;;;;1.30;1.30;;;17.30;64.10;;;;;;5010235;28;43977;-72
2022/04/11 11:09:54;;;;;;;1.30;1.30;;;17.50;63.80;;;;;;5009778;28;45997;-72
2022/04/11 11:12:22;;;;;;;1.40;1.40;;;17.60;63.10;;;;;;5028143;28;44015;-71
2022/04/11 11:14:50;;;;;;;1.40;1.40;;;17.60;62.90;;;;;;5027798;28;43888;-71
2022/04/11 11:17:18;;;;;;;1.40;1.40;;;17.50;63.00;;;;;;5028174;28;43948;-71
2022/04/11 11:20:07;;;;;;;1.23;1.23;;;17.50;63.20;;;;;;5027354;28;44029;-71
2022/04/11 11:22:36;;;;;;;1.30;1.30;;;17.40;63.30;;;;;;5027980;28;43815;-72
2022/04/11 11:25:17;;;;;;;1.47;1.47;;;17.40;63.40;;;;;;5009721;28;44012;-71
2022/04/11 11:27:45;;;;;;;1.20;1.20;;;17.30;63.60;;;;;;5023032;28;43931;-71
2022/04/11 11:30:14;;;;;;;1.40;1.40;;;17.30;63.70;;;;;;5027236;28;43998;-72
2022/04/11 11:32:42;;;;;;;1.20;1.20;;;17.30;63.80;;;;;;5027479;28;43913;-71
2022/04/11 11:35:12;;;;;;;1.27;1.27;;;17.30;63.80;;;;;;5027708;28;43956;-71
2022/04/11 11:37:40;;;;;;;1.30;1.30;;;17.30;63.90;;;;;;5010383;28;44206;-71
2022/04/11 11:40:10;;;;;;;1.33;1.33;;;17.20;63.80;;;;;;5027610;28;44066;-71
2022/04/11 11:42:38;;;;;;;1.33;1.33;;;17.20;64.80;;;;;;5027793;28;43931;-71
2022/04/11 11:45:07;;;;;;;1.13;1.13;;;17.30;64.10;;;;;;5009620;28;43925;-72
2022/04/11 11:47:35;;;;;;;1.10;1.10;;;17.50;63.80;;;;;;5028187;28;43870;-71
2022/04/11 11:50:05;;;;;;;1.33;1.23;;;17.70;63.30;;;;;;5027132;28;44068;-71
2022/04/11 11:52:37;;;;;;;1.20;1.20;;;17.80;62.80;;;;;;5027463;28;43890;-71
2022/04/11 11:55:06;;;;;;;1.33;1.33;;;17.90;62.40;;;;;;5027807;28;43479;-72
2022/04/11 11:57:34;;;;;;;1.00;1.00;;;17.90;62.30;;;;;;5027834;28;43884;-72
2022/04/11 12:00:03;;;;;;;1.20;1.20;;;17.80;62.50;;;;;;5026832;28;43954;-71
2022/04/11 12:05:35;;;;;;;0.90;0.90;;;17.60;63.00;;;;;;5009488;28;44026;-72
2022/04/11 12:08:14;;;;;;;1.10;1.10;;;17.50;63.20;;;;;;5027197;28;43771;-71
2022/04/11 12:10:43;;;;;;;1.20;1.20;;;17.50;63.50;;;;;;5026690;28;44091;-72
2022/04/11 12:13:11;;;;;;;1.00;1.00;;;17.40;63.50;;;;;;5026995;28;43951;-71
2022/04/11 12:15:39;;;;;;;1.10;1.10;;;17.40;63.70;;;;;;5026616;28;43468;-71
2022/04/11 12:18:08;;;;;;;0.90;0.90;;;17.40;63.80;;;;;;5027316;28;44052;-72
2022/04/11 12:20:36;;;;;;;1.30;1.30;;;17.40;64.20;;;;;;5027217;28;44084;-71
2022/04/11 12:23:09;;;;;;;1.00;1.00;;;17.40;64.10;;;;;;5026809;28;43905;-71
2022/04/11 12:25:42;;;;;;;1.13;1.13;;;17.50;63.80;;;;;;5026875;28;43984;-72
2022/04/11 12:28:15;;;;;;;1.00;1.00;;;17.60;63.30;;;;;;5027230;28;43976;-71
2022/04/11 12:30:45;;;;;;;1.30;1.30;;;17.60;63.20;;;;;;5026524;28;44214;-71
2022/04/11 12:33:32;;;;;;;1.20;1.20;;;17.60;63.40;;;;;;5026641;28;44066;-72
2022/04/11 12:36:08;;;;;;;1.00;1.00;;;17.50;63.50;;;;;;5026382;28;43928;-71
2022/04/11 12:38:45;;;;;;;1.00;1.00;;;17.50;63.70;;;;;;5026967;28;43917;-72
2022/04/11 12:41:34;;;;;;;1.20;1.20;;;17.40;63.80;;;;;;5026440;28;43953;-72
2022/04/11 12:44:08;;;;;;;1.00;1.00;;;17.40;64.00;;;;;;5026444;28;44016;-71
2022/04/11 12:46:38;;;;;;;0.90;0.90;;;17.40;64.10;;;;;;5026620;28;44069;-72
2022/04/11 12:49:07;;;;;;;0.97;0.97;;;17.30;64.20;;;;;;5026922;28;43986;-71
2022/04/11 12:51:35;;;;;;;1.10;1.10;;;17.30;64.20;;;;;;5026419;28;44039;-72
2022/04/11 12:54:04;;;;;;;1.10;1.10;;;17.30;64.30;;;;;;5026231;28;44087;-72
2022/04/11 12:56:37;;;;;;;1.37;1.10;;;17.30;64.40;;;;;;5026075;28;43918;-72
2022/04/11 12:59:06;;;;;;;1.20;1.20;;;17.30;64.50;;;;;;5026841;28;44084;-73
2022/04/11 13:01:56;;;;;;;1.00;1.00;;;17.30;64.10;;;;;;5008260;28;46019;-72
2022/04/11 13:04:24;;;;;;;1.20;1.20;;;17.50;63.80;;;;;;5026248;28;43917;-72
2022/04/11 13:06:52;;;;;;;0.90;0.90;;;17.70;63.30;;;;;;5026130;28;44108;-71
2022/04/11 13:09:21;;;;;;;1.10;1.10;;;17.80;62.80;;;;;;5026908;28;44073;-72